createdAt,value
2023-03-31T00:01:44.098Z,1.43
2023-03-31T00:04:16.171Z,1.00
2023-03-31T00:06:48.424Z,1.30
2023-03-31T00:09:20.335Z,1.33
2023-03-31T00:11:52.314Z,3.30
2023-03-31T00:14:24.193Z,1.07
2023-03-31T00:16:56.134Z,2.23
2023-03-31T00:19:28.018Z,1.90
2023-03-31T00:21:59.854Z,1.30
2023-03-31T00:24:31.695Z,2.77
2023-03-31T00:27:03.532Z,1.60
2023-03-31T00:29:35.361Z,1.30
2023-03-31T00:32:08.565Z,1.00
2023-03-31T00:34:40.728Z,0.80
2023-03-31T00:37:12.580Z,0.73
2023-03-31T00:39:44.456Z,1.27
2023-03-31T00:42:16.663Z,1.00
2023-03-31T00:44:48.504Z,1.00
2023-03-31T00:47:20.343Z,1.00
2023-03-31T00:49:52.199Z,0.83
2023-03-31T00:52:24.441Z,1.03
2023-03-31T00:54:56.281Z,1.27
2023-03-31T00:57:28.392Z,2.10
2023-03-31T01:00:00.356Z,1.10
2023-03-31T01:02:32.775Z,1.60
2023-03-31T01:05:04.692Z,1.00
2023-03-31T01:07:36.651Z,0.63
2023-03-31T01:10:08.508Z,1.27
2023-03-31T01:12:40.379Z,0.67
2023-03-31T01:15:12.452Z,0.87
2023-03-31T01:17:44.402Z,1.10
2023-03-31T01:20:16.486Z,0.80
2023-03-31T01:22:48.355Z,0.93
2023-03-31T01:25:20.206Z,0.70
2023-03-31T01:27:52.004Z,1.83
2023-03-31T01:30:24.138Z,1.93
2023-03-31T01:32:56.038Z,1.10
2023-03-31T01:35:27.997Z,1.07
2023-03-31T01:38:00.390Z,0.90
2023-03-31T01:40:32.219Z,1.23
2023-03-31T01:43:04.035Z,1.10
2023-03-31T01:45:35.863Z,1.30
2023-03-31T01:48:07.733Z,1.03
2023-03-31T01:50:39.776Z,1.20
2023-03-31T01:53:11.703Z,1.40
2023-03-31T01:55:43.553Z,1.10
2023-03-31T01:58:15.422Z,1.23
2023-03-31T02:00:47.286Z,1.20
2023-03-31T02:03:19.378Z,1.23
2023-03-31T02:05:51.316Z,1.97
2023-03-31T02:08:23.147Z,1.10
2023-03-31T02:10:54.969Z,1.63
2023-03-31T02:13:26.891Z,1.30
2023-03-31T02:15:58.820Z,1.40
2023-03-31T02:18:30.709Z,1.00
2023-03-31T02:21:02.534Z,1.23
2023-03-31T02:23:34.401Z,1.47
2023-03-31T02:26:06.526Z,1.80
2023-03-31T02:28:38.790Z,1.43
2023-03-31T02:31:10.659Z,1.17
2023-03-31T02:33:42.636Z,0.93
2023-03-31T02:36:14.588Z,1.20
2023-03-31T02:38:46.638Z,2.23
2023-03-31T02:41:18.506Z,1.63
2023-03-31T02:43:50.400Z,1.40
2023-03-31T02:46:22.378Z,1.80
2023-03-31T02:48:54.458Z,1.27
2023-03-31T02:51:26.540Z,1.27
2023-03-31T02:53:58.812Z,1.70
2023-03-31T02:56:32.420Z,2.47
2023-03-31T02:59:04.266Z,1.47
2023-03-31T03:01:36.190Z,1.60
2023-03-31T03:04:08.454Z,2.07
2023-03-31T03:06:40.485Z,1.13
2023-03-31T03:09:14.095Z,1.30
2023-03-31T03:11:46.067Z,3.73
2023-03-31T03:14:17.905Z,1.60
2023-03-31T03:16:49.864Z,1.43
2023-03-31T03:19:21.820Z,1.07
2023-03-31T03:21:53.614Z,2.10
2023-03-31T03:24:25.474Z,1.10
2023-03-31T03:26:57.313Z,1.03
2023-03-31T03:29:29.177Z,0.70
2023-03-31T03:32:01.011Z,1.00
2023-03-31T03:34:32.893Z,1.40
2023-03-31T03:37:04.816Z,1.00
2023-03-31T03:39:36.651Z,1.00
2023-03-31T03:42:08.498Z,2.30
2023-03-31T03:44:40.352Z,1.57
2023-03-31T03:47:12.177Z,1.40
2023-03-31T03:49:44.036Z,1.10
2023-03-31T03:52:15.861Z,0.83
2023-03-31T03:54:47.693Z,0.90
2023-03-31T03:57:19.581Z,1.67
2023-03-31T03:59:51.456Z,0.97
2023-03-31T04:02:24.010Z,1.07
2023-03-31T04:04:56.742Z,1.97
2023-03-31T04:07:28.609Z,1.50
2023-03-31T04:10:00.438Z,1.77
2023-03-31T04:12:32.258Z,0.93
2023-03-31T04:15:04.140Z,1.50
2023-03-31T04:17:36.121Z,0.83
2023-03-31T04:20:08.053Z,0.70
2023-03-31T04:22:39.886Z,1.00
2023-03-31T04:25:11.689Z,0.70
2023-03-31T04:27:43.525Z,0.93
2023-03-31T04:30:15.359Z,1.17
2023-03-31T04:32:47.287Z,0.90
2023-03-31T04:35:19.158Z,0.60
2023-03-31T04:37:51.003Z,0.90
2023-03-31T04:40:22.832Z,1.43
2023-03-31T04:42:54.664Z,1.10
2023-03-31T04:45:26.502Z,1.10
2023-03-31T04:47:58.360Z,0.73
2023-03-31T04:50:30.270Z,1.30
2023-03-31T04:53:02.067Z,1.00
2023-03-31T04:55:33.932Z,1.20
2023-03-31T04:58:05.782Z,1.00
2023-03-31T05:00:37.633Z,0.60
2023-03-31T05:03:09.487Z,1.33
2023-03-31T05:05:41.321Z,0.97
2023-03-31T05:08:13.182Z,0.90
2023-03-31T05:10:45.099Z,0.90
2023-03-31T05:13:16.958Z,0.63
2023-03-31T05:15:48.784Z,1.10
2023-03-31T05:18:20.601Z,0.60
2023-03-31T05:20:52.412Z,0.97
2023-03-31T05:23:24.238Z,1.53
2023-03-31T05:25:56.070Z,1.03
2023-03-31T05:28:28.621Z,0.60
2023-03-31T05:31:01.356Z,0.90
2023-03-31T05:33:33.166Z,0.57
2023-03-31T05:36:05.223Z,1.07
2023-03-31T05:38:37.375Z,1.00
2023-03-31T05:41:09.154Z,0.83
2023-03-31T05:43:40.957Z,0.97
2023-03-31T05:46:12.832Z,0.50
2023-03-31T05:48:44.698Z,0.50
2023-03-31T05:51:16.633Z,1.00
2023-03-31T05:53:48.449Z,0.70
2023-03-31T05:56:20.239Z,0.67
2023-03-31T05:58:52.169Z,0.70
2023-03-31T06:01:24.020Z,0.93
2023-03-31T06:03:56.046Z,0.70
2023-03-31T06:06:27.882Z,0.53
2023-03-31T06:08:59.712Z,1.07
2023-03-31T06:11:31.516Z,0.53
2023-03-31T06:14:03.349Z,0.43
2023-03-31T06:16:35.207Z,0.43
2023-03-31T06:19:07.124Z,0.50
2023-03-31T06:21:39.018Z,0.97
2023-03-31T06:24:10.808Z,1.70
2023-03-31T06:26:42.761Z,0.50
2023-03-31T06:29:14.630Z,0.77
2023-03-31T06:31:46.510Z,0.80
2023-03-31T06:34:20.022Z,0.40
2023-03-31T06:36:51.861Z,0.40
2023-03-31T06:39:25.199Z,0.40
2023-03-31T06:41:57.135Z,0.60
2023-03-31T06:44:30.832Z,0.50
2023-03-31T06:47:02.608Z,0.73
2023-03-31T06:49:34.405Z,0.77
2023-03-31T06:52:06.223Z,0.30
2023-03-31T06:54:38.049Z,0.50
2023-03-31T06:57:09.995Z,1.20
2023-03-31T06:59:41.909Z,0.70
2023-03-31T07:02:13.743Z,0.30
2023-03-31T07:04:45.590Z,0.50
2023-03-31T07:07:17.629Z,0.27
2023-03-31T07:09:49.435Z,0.20
2023-03-31T07:12:21.327Z,0.50
2023-03-31T07:14:53.186Z,0.50
2023-03-31T07:17:25.072Z,0.40
2023-03-31T07:19:56.951Z,0.50
2023-03-31T07:22:28.763Z,0.50
2023-03-31T07:25:00.635Z,0.50
2023-03-31T07:27:32.531Z,0.30
2023-03-31T07:30:04.363Z,0.60
2023-03-31T07:32:36.209Z,0.50
2023-03-31T07:35:08.033Z,0.50
2023-03-31T07:37:39.844Z,0.40
2023-03-31T07:40:11.683Z,0.30
2023-03-31T07:42:43.522Z,0.57
2023-03-31T07:45:15.333Z,0.47
2023-03-31T07:47:47.201Z,0.47
2023-03-31T07:50:19.348Z,1.73
2023-03-31T07:52:52.421Z,0.63
2023-03-31T07:55:24.334Z,0.70
2023-03-31T07:57:56.145Z,0.37
2023-03-31T08:00:28.060Z,0.50
2023-03-31T08:02:59.964Z,0.50
2023-03-31T08:05:31.762Z,0.50
2023-03-31T08:08:03.640Z,0.77
2023-03-31T08:10:35.443Z,0.40
2023-03-31T08:13:07.308Z,0.80
2023-03-31T08:15:39.165Z,0.77
2023-03-31T08:18:11.253Z,1.80
2023-03-31T08:20:43.046Z,0.77
2023-03-31T08:23:14.853Z,0.80
2023-03-31T08:25:46.755Z,0.83
2023-03-31T08:28:18.598Z,0.90
2023-03-31T08:30:50.644Z,1.10
2023-03-31T08:33:22.493Z,1.00
2023-03-31T08:35:54.336Z,2.37
2023-03-31T08:38:26.309Z,1.20
2023-03-31T08:40:58.167Z,1.63
2023-03-31T08:43:30.082Z,1.43
2023-03-31T08:46:02.060Z,1.40
2023-03-31T08:48:33.984Z,1.10
2023-03-31T08:51:08.861Z,1.20
2023-03-31T08:53:40.844Z,3.20
2023-03-31T08:56:12.706Z,1.57
2023-03-31T08:58:44.545Z,0.70
2023-03-31T09:01:16.419Z,1.20
2023-03-31T09:03:48.269Z,1.10
2023-03-31T09:06:20.277Z,1.90
2023-03-31T09:08:52.128Z,1.67
2023-03-31T09:11:23.953Z,2.03
2023-03-31T09:13:55.883Z,1.10
2023-03-31T09:16:27.739Z,1.40
2023-03-31T09:18:59.576Z,1.37
2023-03-31T09:21:31.373Z,1.80
2023-03-31T09:24:03.683Z,1.57
2023-03-31T09:26:35.654Z,1.80
2023-03-31T09:29:07.568Z,1.33
2023-03-31T09:31:39.591Z,1.40
2023-03-31T09:34:11.504Z,1.20
2023-03-31T09:36:43.360Z,1.70
2023-03-31T09:39:15.333Z,1.03
2023-03-31T09:41:47.165Z,1.60
2023-03-31T09:44:18.982Z,1.20
2023-03-31T09:46:50.908Z,1.03
2023-03-31T09:49:22.763Z,1.77
2023-03-31T09:51:54.623Z,1.10
2023-03-31T09:54:26.488Z,1.13
2023-03-31T09:56:58.363Z,1.77
2023-03-31T09:59:30.156Z,1.10
2023-03-31T10:02:02.209Z,1.00
2023-03-31T10:04:34.239Z,1.50
2023-03-31T10:07:06.337Z,1.17
2023-03-31T10:09:38.192Z,1.67
2023-03-31T10:12:10.011Z,1.07
2023-03-31T10:14:41.767Z,1.47
2023-03-31T10:17:13.604Z,1.33
2023-03-31T10:19:45.831Z,0.97
2023-03-31T10:22:17.998Z,1.70
2023-03-31T10:24:49.912Z,0.87
2023-03-31T10:27:21.737Z,1.20
2023-03-31T10:29:53.536Z,1.10
2023-03-31T10:32:25.404Z,1.13
2023-03-31T10:34:57.211Z,0.93
2023-03-31T10:37:28.986Z,0.97
2023-03-31T10:40:00.806Z,1.20
2023-03-31T10:42:32.798Z,2.30
2023-03-31T10:45:04.688Z,1.50
2023-03-31T10:47:36.571Z,1.23
2023-03-31T10:50:08.408Z,1.10
2023-03-31T10:52:40.273Z,0.80
2023-03-31T10:55:12.212Z,0.90
2023-03-31T10:57:44.462Z,1.63
2023-03-31T11:00:16.392Z,0.87
2023-03-31T11:02:48.397Z,1.60
2023-03-31T11:05:20.347Z,1.40
2023-03-31T11:07:52.244Z,0.90
2023-03-31T11:10:24.274Z,1.63
2023-03-31T11:12:56.223Z,1.17
2023-03-31T11:15:28.087Z,1.10
2023-03-31T11:17:59.999Z,1.07
2023-03-31T11:20:32.187Z,1.10
2023-03-31T11:23:04.042Z,1.70
2023-03-31T11:25:35.885Z,1.30
2023-03-31T11:28:07.743Z,1.23
2023-03-31T11:30:39.595Z,0.90
2023-03-31T11:33:11.809Z,1.07
2023-03-31T11:35:43.917Z,1.00
2023-03-31T11:38:15.839Z,1.30
2023-03-31T11:40:47.802Z,1.43
2023-03-31T11:43:19.636Z,1.90
2023-03-31T11:45:51.573Z,0.90
2023-03-31T11:48:23.451Z,0.80
2023-03-31T11:50:55.339Z,1.07
2023-03-31T11:53:27.180Z,1.20
2023-03-31T11:55:59.143Z,0.80
2023-03-31T11:58:31.104Z,1.00
2023-03-31T12:01:03.507Z,1.23
2023-03-31T12:03:35.780Z,0.97
2023-03-31T12:06:07.956Z,0.47
2023-03-31T12:08:40.221Z,0.40
2023-03-31T12:11:12.054Z,0.60
2023-03-31T12:13:43.937Z,0.70
2023-03-31T12:16:15.881Z,1.17
2023-03-31T12:18:48.034Z,0.97
2023-03-31T12:21:20.010Z,1.10
2023-03-31T12:23:51.924Z,1.50
2023-03-31T12:26:23.821Z,0.73
2023-03-31T12:28:55.742Z,0.73
2023-03-31T12:31:27.975Z,0.70
2023-03-31T12:33:59.987Z,0.90
2023-03-31T12:36:31.802Z,0.57
2023-03-31T12:39:03.658Z,0.73
2023-03-31T12:41:35.510Z,0.43
2023-03-31T12:44:07.385Z,0.80
2023-03-31T12:46:39.238Z,0.87
2023-03-31T12:49:11.176Z,0.97
2023-03-31T12:51:43.028Z,1.10
2023-03-31T12:54:14.886Z,0.70
2023-03-31T12:56:46.818Z,1.00
2023-03-31T12:59:18.857Z,0.90
2023-03-31T13:01:50.777Z,0.70
2023-03-31T13:04:22.820Z,0.87
2023-03-31T13:06:54.783Z,0.80
2023-03-31T13:09:26.980Z,1.13
2023-03-31T13:11:58.872Z,0.90
2023-03-31T13:14:30.703Z,0.80
2023-03-31T13:17:02.642Z,1.27
2023-03-31T13:19:34.552Z,1.07
2023-03-31T13:22:06.869Z,1.83
2023-03-31T13:24:38.714Z,1.17
2023-03-31T13:27:10.630Z,0.80
2023-03-31T13:29:42.533Z,1.17
2023-03-31T13:32:14.404Z,0.60
2023-03-31T13:34:46.339Z,0.90
2023-03-31T13:37:18.201Z,1.20
2023-03-31T13:39:50.063Z,0.70
2023-03-31T13:42:21.912Z,0.87
2023-03-31T13:44:53.806Z,1.13
2023-03-31T13:47:25.674Z,0.80
2023-03-31T13:49:57.665Z,0.67
2023-03-31T13:52:29.507Z,0.80
2023-03-31T13:55:01.350Z,0.57
2023-03-31T13:57:33.318Z,1.60
2023-03-31T14:00:05.252Z,2.03
2023-03-31T14:02:37.305Z,1.00
2023-03-31T14:05:09.373Z,1.07
2023-03-31T14:07:41.446Z,0.50
2023-03-31T14:10:13.696Z,0.90
2023-03-31T14:12:45.582Z,0.97
2023-03-31T14:15:17.404Z,0.50
2023-03-31T14:17:49.697Z,1.07
2023-03-31T14:20:21.750Z,0.40
2023-03-31T14:22:54.032Z,0.77
2023-03-31T14:25:25.859Z,0.60
2023-03-31T14:27:57.708Z,1.13
2023-03-31T14:30:29.729Z,0.50
2023-03-31T14:33:03.862Z,0.50
2023-03-31T14:35:35.285Z,0.33
2023-03-31T14:38:07.235Z,1.37
2023-03-31T14:40:39.438Z,0.50
2023-03-31T14:43:11.407Z,0.60
2023-03-31T14:45:43.260Z,1.17
2023-03-31T14:48:15.123Z,0.67
2023-03-31T14:50:47.023Z,0.47
2023-03-31T14:53:18.866Z,0.90
2023-03-31T14:55:58.720Z,0.30
2023-03-31T14:58:24.114Z,0.50
2023-03-31T15:00:56.442Z,0.50
2023-03-31T15:03:28.382Z,0.87
2023-03-31T15:06:00.181Z,0.60
2023-03-31T15:08:32.204Z,0.50
2023-03-31T15:11:12.945Z,1.43
2023-03-31T15:13:37.828Z,0.50
2023-03-31T15:16:09.722Z,1.73
2023-03-31T15:18:41.571Z,0.60
2023-03-31T15:21:13.456Z,0.40
2023-03-31T15:23:45.324Z,0.50
2023-03-31T15:26:18.121Z,0.43
2023-03-31T15:28:51.077Z,0.30
2023-03-31T15:31:23.136Z,0.40
2023-03-31T15:33:55.589Z,0.47
2023-03-31T15:36:27.689Z,0.60
2023-03-31T15:38:59.656Z,0.43
2023-03-31T15:41:31.825Z,1.47
2023-03-31T15:44:04.292Z,0.40
2023-03-31T15:46:36.192Z,1.10
2023-03-31T15:49:08.607Z,0.90
2023-03-31T15:51:40.766Z,0.40
2023-03-31T15:54:12.824Z,0.70
2023-03-31T15:56:44.939Z,0.47
2023-03-31T15:59:17.156Z,0.23
2023-03-31T16:01:49.170Z,0.40
2023-03-31T16:04:21.333Z,0.50
2023-03-31T16:06:53.191Z,0.30
2023-03-31T16:09:25.050Z,0.40
2023-03-31T16:11:57.188Z,0.47
2023-03-31T16:14:30.081Z,0.60
2023-03-31T16:17:02.117Z,0.40
2023-03-31T16:19:33.942Z,0.40
2023-03-31T16:22:05.767Z,0.40
2023-03-31T16:24:37.674Z,0.40
2023-03-31T16:27:09.835Z,0.43
2023-03-31T16:29:41.700Z,0.50
2023-03-31T16:32:13.580Z,0.60
2023-03-31T16:34:45.464Z,0.50
2023-03-31T16:37:17.330Z,0.47
2023-03-31T16:39:49.204Z,0.40
2023-03-31T16:42:21.063Z,0.87
2023-03-31T16:47:35.277Z,0.63
2023-03-31T16:50:00.032Z,0.60
2023-03-31T16:52:31.830Z,0.43
2023-03-31T16:55:03.682Z,1.23
2023-03-31T16:57:35.507Z,1.53
2023-03-31T17:00:07.384Z,2.90
2023-03-31T17:02:39.302Z,1.10
2023-03-31T17:05:13.806Z,1.40
2023-03-31T17:07:44.660Z,0.70
2023-03-31T17:10:16.489Z,2.60
2023-03-31T17:12:48.303Z,0.77
2023-03-31T17:15:20.543Z,0.73
2023-03-31T17:17:52.473Z,0.90
2023-03-31T17:20:24.371Z,1.00
2023-03-31T17:22:56.221Z,1.47
2023-03-31T17:25:28.110Z,1.60
2023-03-31T17:27:59.985Z,0.70
2023-03-31T17:30:31.799Z,0.60
2023-03-31T17:33:03.773Z,0.90
2023-03-31T17:35:35.590Z,0.70
2023-03-31T17:38:07.399Z,0.60
2023-03-31T17:40:39.468Z,0.60
2023-03-31T17:43:11.528Z,0.80
2023-03-31T17:45:43.391Z,0.70
2023-03-31T17:48:15.234Z,0.70
2023-03-31T17:50:47.096Z,0.57
2023-03-31T17:53:18.964Z,0.70
2023-03-31T17:55:50.769Z,0.77
2023-03-31T17:58:22.639Z,0.80
2023-03-31T18:00:54.548Z,0.63
2023-03-31T18:03:26.411Z,0.57
2023-03-31T18:05:58.225Z,1.00
2023-03-31T18:08:30.046Z,0.80
2023-03-31T18:11:01.963Z,0.77
2023-03-31T18:13:33.784Z,0.80
2023-03-31T18:16:05.683Z,0.70
2023-03-31T18:18:37.542Z,0.80
2023-03-31T18:21:09.408Z,1.40
2023-03-31T18:23:41.227Z,0.87
2023-03-31T18:26:13.140Z,1.27
2023-03-31T18:28:45.093Z,1.10
2023-03-31T18:31:17.018Z,2.50
2023-03-31T18:33:48.940Z,1.17
2023-03-31T18:36:20.915Z,1.77
2023-03-31T18:38:52.841Z,1.33
2023-03-31T18:41:24.688Z,1.33
2023-03-31T18:43:56.533Z,1.40
2023-03-31T18:46:28.379Z,1.00
2023-03-31T18:49:00.299Z,1.30
2023-03-31T18:51:32.120Z,0.80
2023-03-31T18:54:03.992Z,1.03
2023-03-31T18:56:35.938Z,0.90
2023-03-31T18:59:07.830Z,2.60
2023-03-31T19:01:39.623Z,1.17
2023-03-31T19:04:11.441Z,1.13
2023-03-31T19:06:43.297Z,1.23
2023-03-31T19:09:15.082Z,1.30
2023-03-31T19:11:47.435Z,2.00
2023-03-31T19:14:20.112Z,1.47
2023-03-31T19:16:52.068Z,1.53
2023-03-31T19:19:23.968Z,1.30
2023-03-31T19:21:55.783Z,1.10
2023-03-31T19:24:27.617Z,1.30
2023-03-31T19:26:59.518Z,1.40
2023-03-31T19:29:31.629Z,1.70
2023-03-31T19:32:03.401Z,1.33
2023-03-31T19:34:35.211Z,1.70
2023-03-31T19:37:07.397Z,1.43
2023-03-31T19:39:39.321Z,1.30
2023-03-31T19:42:11.256Z,1.87
2023-03-31T19:44:43.094Z,1.20
2023-03-31T19:47:14.879Z,1.30
2023-03-31T19:49:46.815Z,1.23
2023-03-31T19:52:18.843Z,2.90
2023-03-31T19:54:50.661Z,1.23
2023-03-31T19:57:22.578Z,2.00
2023-03-31T19:59:54.379Z,1.50
2023-03-31T20:02:26.448Z,2.47
2023-03-31T20:04:58.547Z,1.30
2023-03-31T20:07:30.514Z,1.33
2023-03-31T20:10:02.540Z,1.83
2023-03-31T20:12:34.467Z,1.43
2023-03-31T20:15:06.292Z,1.60
2023-03-31T20:17:38.440Z,1.77
2023-03-31T20:20:10.632Z,1.23
2023-03-31T20:22:42.565Z,2.57
2023-03-31T20:25:14.365Z,1.97
2023-03-31T20:27:46.207Z,1.90
2023-03-31T20:30:18.003Z,1.43
2023-03-31T20:32:49.844Z,2.33
2023-03-31T20:35:21.868Z,2.33
2023-03-31T20:37:53.978Z,1.40
2023-03-31T20:40:26.351Z,2.60
2023-03-31T20:42:58.388Z,1.70
2023-03-31T20:45:31.377Z,1.37
2023-03-31T20:48:03.797Z,1.50
2023-03-31T20:50:35.741Z,1.83
2023-03-31T20:53:07.801Z,1.00
2023-03-31T20:55:40.106Z,1.10
2023-03-31T20:58:12.215Z,0.90
2023-03-31T21:00:44.451Z,2.00
2023-03-31T21:03:16.468Z,1.30
2023-03-31T21:05:48.784Z,0.90
2023-03-31T21:08:20.742Z,1.10
2023-03-31T21:10:52.570Z,0.97
2023-03-31T21:13:24.532Z,1.07
2023-03-31T21:15:56.324Z,1.00
2023-03-31T21:18:28.169Z,0.80
2023-03-31T21:21:00.028Z,0.70
2023-03-31T21:23:31.910Z,0.93
2023-03-31T21:26:04.964Z,1.10
2023-03-31T21:28:39.486Z,0.70
2023-03-31T21:31:11.509Z,1.20
2023-03-31T21:33:43.568Z,1.37
2023-03-31T21:36:15.333Z,0.70
2023-03-31T21:38:47.136Z,1.47
2023-03-31T21:41:18.939Z,1.40
2023-03-31T21:43:50.917Z,0.80
2023-03-31T21:46:22.871Z,0.63
2023-03-31T21:48:54.825Z,0.87
2023-03-31T21:51:26.693Z,0.63
2023-03-31T21:53:58.628Z,0.77
2023-03-31T21:56:32.023Z,0.80
2023-03-31T21:59:03.901Z,1.13
2023-03-31T22:01:35.755Z,2.67
2023-03-31T22:04:07.773Z,1.33
2023-03-31T22:06:39.626Z,1.47
2023-03-31T22:09:11.478Z,0.93
2023-03-31T22:11:43.486Z,2.00
2023-03-31T22:14:15.349Z,1.10
2023-03-31T22:16:47.259Z,1.40
2023-03-31T22:19:20.062Z,1.13
2023-03-31T22:21:51.919Z,1.60
2023-03-31T22:24:23.815Z,2.23
2023-03-31T22:26:55.629Z,1.70
2023-03-31T22:29:28.719Z,2.20
2023-03-31T22:32:05.882Z,1.77
2023-03-31T22:34:41.716Z,1.30
2023-03-31T22:37:24.264Z,2.30
2023-03-31T22:40:02.780Z,1.37
2023-03-31T22:42:35.556Z,1.67
2023-03-31T22:45:07.392Z,1.60
2023-03-31T22:47:39.304Z,1.43
2023-03-31T22:50:11.213Z,1.87
2023-03-31T22:52:43.278Z,2.33
2023-03-31T22:55:15.398Z,1.80
2023-03-31T22:57:47.233Z,2.53
2023-03-31T23:00:19.103Z,2.13
2023-03-31T23:02:50.962Z,2.50
2023-03-31T23:05:22.793Z,2.83
2023-03-31T23:07:54.903Z,1.97
2023-03-31T23:10:27.081Z,1.97
2023-03-31T23:12:58.990Z,2.40
2023-03-31T23:15:30.933Z,2.67
2023-03-31T23:18:03.376Z,2.50
2023-03-31T23:20:35.239Z,3.23
2023-03-31T23:23:07.247Z,3.07
2023-03-31T23:25:39.072Z,2.50
2023-03-31T23:28:10.938Z,2.27
2023-03-31T23:30:43.095Z,3.10
2023-03-31T23:33:15.084Z,3.20
2023-03-31T23:35:46.974Z,2.70
2023-03-31T23:38:18.814Z,3.73
2023-03-31T23:40:50.728Z,3.30
2023-03-31T23:43:22.728Z,3.10
2023-03-31T23:45:54.599Z,4.03
2023-03-31T23:48:26.419Z,4.53
2023-03-31T23:50:58.235Z,4.50
2023-03-31T23:53:30.190Z,5.90
2023-03-31T23:56:02.469Z,3.70
2023-03-31T23:58:34.299Z,4.07
